Time;durP1;ratioP1;P1;durP2;ratioP2;P2;SDS_P1;SDS_P2;PMS_P1;PMS_P2;Temp;Humidity;BMP_temperature;BMP_pressure;BME280_temperature;BME280_humidity;BME280_pressure;Samples;Min_cycle;Max_cycle;Signal;HPM_P1;HPM_P2
2022/01/01 00:00:18;;;;;;;11.73;6.78;;;;;;;9.03;72.24;99912.53;5314667;27;33965;-89
2022/01/01 00:02:47;;;;;;;9.77;6.75;;;;;;;9.06;72.05;99903.88;5314854;27;34423;-89
2022/01/01 00:05:17;;;;;;;13.30;8.48;;;;;;;8.81;73.37;99901.37;5315108;27;33881;-89
2022/01/01 00:07:46;;;;;;;18.33;10.55;;;;;;;9.08;72.29;99907.34;5294701;27;36165;-89
2022/01/01 00:10:15;;;;;;;19.20;12.13;;;;;;;9.13;72.16;99900.41;5300809;27;31946;-92
2022/01/01 00:12:46;;;;;;;20.62;13.55;;;;;;;8.99;72.71;99897.91;5312778;27;31513;-90
2022/01/01 00:15:18;;;;;;;17.87;12.70;;;;;;;9.05;72.28;99891.81;5295511;27;34635;-89
2022/01/01 00:17:47;;;;;;;20.67;12.73;;;;;;;9.11;71.69;99895.25;5315080;27;33579;-89
2022/01/01 00:20:19;;;;;;;19.62;12.50;;;;;;;8.76;72.60;99895.37;5294174;27;31981;-89
2022/01/01 00:22:48;;;;;;;17.85;11.73;;;;;;;9.00;71.62;99898.75;5320806;27;33274;-90
2022/01/01 00:25:17;;;;;;;19.95;12.57;;;;;;;8.77;72.10;99897.09;5318013;27;34694;-89
2022/01/01 00:27:46;;;;;;;21.62;13.30;;;;;;;8.62;72.46;99891.94;5314517;27;33989;-88
2022/01/01 00:30:15;;;;;;;19.73;12.95;;;;;;;8.81;72.31;99880.69;5314784;27;34536;-89
2022/01/01 00:32:43;;;;;;;17.42;11.93;;;;;;;8.67;72.29;99879.84;5314949;27;33173;-90
2022/01/01 00:35:13;;;;;;;21.25;12.00;;;;;;;8.66;72.44;99867.81;5319774;27;33962;-90
2022/01/01 00:37:43;;;;;;;18.83;9.90;;;;;;;8.53;72.62;99854.91;5300769;27;36406;-89
2022/01/01 00:40:12;;;;;;;18.67;10.10;;;;;;;8.58;72.48;99883.34;5315156;27;33094;-89
2022/01/01 00:42:41;;;;;;;15.95;10.43;;;;;;;8.74;72.32;99873.81;5316315;27;33468;-88
2022/01/01 00:45:11;;;;;;;17.02;11.30;;;;;;;8.84;71.72;99862.56;5314653;27;34681;-88
2022/01/01 00:47:39;;;;;;;19.40;11.75;;;;;;;8.64;71.90;99874.69;5314402;27;33395;-88
2022/01/01 00:50:09;;;;;;;19.27;11.35;;;;;;;8.73;71.85;99882.44;5319534;27;34558;-90
2022/01/01 00:52:37;;;;;;;18.37;9.93;;;;;;;8.65;72.14;99885.06;5295018;27;33642;-89
2022/01/01 00:55:09;;;;;;;14.82;10.32;;;;;;;8.91;71.63;99872.03;5295115;27;34031;-91
2022/01/01 00:57:38;;;;;;;17.30;10.85;;;;;;;8.82;71.63;99866.91;5314902;27;33553;-88
2022/01/01 01:00:08;;;;;;;14.80;9.30;;;;;;;8.68;72.03;99874.69;5316178;27;34198;-89
2022/01/01 01:02:36;;;;;;;15.82;9.52;;;;;;;8.51;72.34;99873.88;5321349;27;33302;-89
2022/01/01 01:05:09;;;;;;;10.48;6.45;;;;;;;8.70;71.77;99888.50;5314876;27;34324;-90
2022/01/01 01:07:38;;;;;;;13.40;7.85;;;;;;;8.79;71.73;99890.16;5314921;27;34611;-91
2022/01/01 01:10:09;;;;;;;12.48;8.30;;;;;;;8.61;72.04;99891.09;5313926;27;33850;-91
2022/01/01 01:12:42;;;;;;;10.60;5.75;;;;;;;8.69;71.40;99904.00;5294655;27;34334;-88
2022/01/01 01:15:17;;;;;;;8.63;5.90;;;;;;;8.38;72.24;99890.22;5301138;27;35033;-91
2022/01/01 01:17:47;;;;;;;8.80;5.40;;;;;;;8.45;72.50;99898.00;5314249;27;33863;-89
2022/01/01 01:20:16;;;;;;;8.07;5.32;;;;;;;8.69;71.77;99891.91;5314738;27;34011;-90
2022/01/01 01:22:45;;;;;;;8.88;4.35;;;;;;;8.74;71.47;99899.69;5294783;27;32253;-89
2022/01/01 01:25:16;;;;;;;10.35;5.00;;;;;;;8.77;71.79;99899.69;5314302;27;33562;-88
2022/01/01 01:27:45;;;;;;;6.70;3.55;;;;;;;8.57;72.32;99893.69;5321208;27;33969;-90
2022/01/01 01:30:16;;;;;;;6.87;3.90;;;;;;;8.26;73.59;99889.41;5293571;27;34133;-90
2022/01/01 01:32:45;;;;;;;7.15;3.83;;;;;;;8.70;72.48;99897.97;5314553;27;33438;-90
2022/01/01 01:35:15;;;;;;;9.15;4.78;;;;;;;8.43;73.55;99898.88;5314235;27;33824;-90
2022/01/01 01:37:43;;;;;;;10.60;5.12;;;;;;;8.62;73.42;99899.69;5314690;27;33961;-88
2022/01/01 01:40:13;;;;;;;8.00;3.85;;;;;;;8.59;73.32;99905.75;5321285;27;33947;-89
2022/01/01 01:42:44;;;;;;;7.07;4.53;;;;;;;8.74;72.48;99908.28;5316768;27;34025;-89
2022/01/01 01:45:17;;;;;;;6.80;3.85;;;;;;;8.48;73.31;99904.88;5313973;27;33804;-88
2022/01/01 01:47:48;;;;;;;7.62;3.80;;;;;;;8.44;73.59;99895.44;5314775;27;34700;-91
2022/01/01 01:50:19;;;;;;;6.30;3.65;;;;;;;8.59;72.88;99897.13;5294647;27;34107;-90
2022/01/01 01:52:50;;;;;;;5.97;3.60;;;;;;;8.52;73.15;99891.09;5295094;27;33709;-90
2022/01/01 01:55:19;;;;;;;8.57;5.05;;;;;;;8.81;72.48;99891.03;5321089;27;33625;-89
2022/01/01 01:57:50;;;;;;;7.87;3.97;;;;;;;8.65;72.70;99890.22;5294604;27;34522;-89
2022/01/01 02:00:44;;;;;;;6.82;3.65;;;;;;;8.75;72.44;99898.81;5293662;27;34078;-90
2022/01/01 02:03:14;;;;;;;6.95;4.07;;;;;;;8.50;73.38;99895.41;5312454;27;34189;-88
2022/01/01 02:05:43;;;;;;;8.60;4.40;;;;;;;8.51;73.35;99897.16;5313812;27;34014;-89
2022/01/01 02:08:12;;;;;;;6.53;4.10;;;;;;;8.67;73.10;99903.13;5313164;27;34736;-88
2022/01/01 02:10:41;;;;;;;6.30;3.75;;;;;;;8.70;73.01;99898.84;5320747;27;34209;-89
2022/01/01 02:13:17;;;;;;;7.07;4.37;;;;;;;8.52;73.48;99898.84;5317213;27;33817;-89
2022/01/01 02:16:00;;;;;;;6.07;3.75;;;;;;;8.69;73.21;99897.09;5314006;27;34549;-89
2022/01/01 02:18:29;;;;;;;7.53;4.03;;;;;;;8.88;73.20;99897.91;5312766;27;33722;-88
2022/01/01 02:20:59;;;;;;;7.93;4.78;;;;;;;8.92;73.76;99897.06;5313902;27;33940;-88
2022/01/01 02:23:28;;;;;;;8.30;4.85;;;;;;;9.07;73.50;99900.44;5320534;27;35577;-88
2022/01/01 02:25:57;;;;;;;9.02;4.87;;;;;;;9.28;73.17;99902.06;5313633;27;34208;-90
2022/01/01 02:28:26;;;;;;;7.28;3.92;;;;;;;8.96;73.90;99903.94;5315356;27;34820;-89
2022/01/01 02:30:57;;;;;;;9.15;4.40;;;;;;;9.07;73.32;99903.91;5315199;27;33740;-90
2022/01/01 02:33:26;;;;;;;6.53;4.05;;;;;;;9.21;73.09;99909.03;5315976;27;34124;-90
2022/01/01 02:35:55;;;;;;;6.57;3.67;;;;;;;9.47;72.49;99908.03;5317275;27;34547;-89
2022/01/01 02:38:25;;;;;;;6.75;3.97;;;;;;;9.24;73.22;99906.41;5301782;27;33942;-90
2022/01/01 02:40:54;;;;;;;5.60;3.50;;;;;;;9.38;72.20;99904.63;5314834;27;33098;-88
2022/01/01 02:43:22;;;;;;;6.10;3.90;;;;;;;9.22;73.20;99900.38;5295631;27;32421;-88
2022/01/01 02:45:52;;;;;;;5.35;3.50;;;;;;;9.35;73.42;99898.59;5316024;27;33377;-88
2022/01/01 02:48:23;;;;;;;7.00;3.08;;;;;;;9.57;73.26;99904.53;5322835;27;34029;-88
2022/01/01 02:50:52;;;;;;;7.78;4.10;;;;;;;9.53;73.69;99900.25;5316158;27;33610;-90
2022/01/01 02:53:21;;;;;;;7.62;4.15;;;;;;;9.55;73.91;99890.72;5316663;27;33402;-88
2022/01/01 02:55:51;;;;;;;5.30;3.03;;;;;;;9.68;73.24;99886.31;5316497;27;33853;-91
2022/01/01 02:58:20;;;;;;;5.60;3.80;;;;;;;9.58;74.12;99890.72;5296554;27;35783;-89
2022/01/01 03:00:52;;;;;;;6.65;3.85;;;;;;;9.65;74.27;99886.34;5316966;27;34418;-89
2022/01/01 03:03:20;;;;;;;5.15;3.05;;;;;;;9.87;73.30;99887.91;5322894;27;33338;-89
2022/01/01 03:05:49;;;;;;;4.70;2.72;;;;;;;9.85;73.62;99883.62;5316081;27;33436;-90
2022/01/01 03:08:18;;;;;;;6.15;3.35;;;;;;;9.87;73.93;99890.50;5316749;27;33829;-89
2022/01/01 03:10:47;;;;;;;5.28;3.62;;;;;;;10.01;73.64;99885.25;5315782;27;34480;-90
2022/01/01 03:13:18;;;;;;;6.43;3.55;;;;;;;10.11;73.54;99883.44;5294498;27;34424;-90
2022/01/01 03:15:46;;;;;;;6.10;3.87;;;;;;;10.19;73.34;99885.06;5321701;27;33328;-89
2022/01/01 03:18:15;;;;;;;5.28;3.22;;;;;;;10.26;73.21;99885.88;5314620;27;33130;-89
2022/01/01 03:20:45;;;;;;;4.25;2.70;;;;;;;10.42;72.72;99894.44;5295160;27;33920;-90
2022/01/01 03:23:13;;;;;;;6.18;3.50;;;;;;;10.46;72.73;99898.69;5315210;27;33328;-90
2022/01/01 03:25:42;;;;;;;3.87;2.53;;;;;;;10.55;72.44;99903.78;5315270;27;34766;-90
2022/01/01 03:28:11;;;;;;;3.58;2.25;;;;;;;10.68;72.00;99902.81;5321495;27;34671;-90
2022/01/01 03:30:41;;;;;;;6.72;3.78;;;;;;;10.68;71.83;99910.59;5294615;27;31837;-89
2022/01/01 03:33:10;;;;;;;5.93;3.53;;;;;;;10.67;71.66;99908.00;5315436;27;32638;-89
2022/01/01 03:35:39;;;;;;;4.80;3.25;;;;;;;10.71;71.72;99911.44;5315375;27;33897;-89
2022/01/01 03:38:08;;;;;;;4.47;2.67;;;;;;;10.68;71.38;99914.94;5295051;27;34195;-90
2022/01/01 03:40:37;;;;;;;6.78;3.37;;;;;;;10.46;72.09;99904.75;5301978;27;31675;-91
2022/01/01 03:43:05;;;;;;;6.03;3.30;;;;;;;10.39;72.58;99917.78;5296235;27;34066;-90
2022/01/01 03:45:36;;;;;;;5.43;3.25;;;;;;;10.43;72.49;99917.75;5296121;27;33896;-90
2022/01/01 03:48:06;;;;;;;;;;;;;;;10.57;72.19;99930.59;5296592;27;34520;-90
2022/01/01 03:50:35;;;;;;;5.60;2.85;;;;;;;10.39;73.12;99923.84;5295531;27;33523;-89
2022/01/01 03:53:04;;;;;;;7.93;3.75;;;;;;;10.50;73.67;99922.88;5314121;27;34325;-89
2022/01/01 03:55:33;;;;;;;4.97;2.62;;;;;;;10.72;73.08;99910.56;5321485;27;33530;-88
2022/01/01 03:58:01;;;;;;;5.60;2.28;;;;;;;10.99;72.00;99912.84;5316179;27;33889;-88
2022/01/01 04:00:30;;;;;;;5.10;2.65;;;;;;;11.09;71.75;99919.69;5316115;27;34474;-90
2022/01/01 04:03:07;;;;;;;4.43;2.85;;;;;;;11.09;71.57;99924.87;5294591;27;31665;-91
2022/01/01 04:05:40;;;;;;;4.25;2.78;;;;;;;11.24;70.98;99930.75;5315538;27;34697;-90
2022/01/01 04:08:09;;;;;;;4.68;2.65;;;;;;;11.34;70.61;99931.50;5301374;27;34536;-90
2022/01/01 04:10:41;;;;;;;4.80;2.60;;;;;;;11.31;70.58;99933.25;5294048;27;34692;-90
2022/01/01 04:13:11;;;;;;;6.50;3.65;;;;;;;11.36;70.37;99933.19;5293566;27;32784;-89
2022/01/01 04:15:42;;;;;;;3.62;2.47;;;;;;;11.24;70.74;99942.00;5315050;27;33478;-90
2022/01/01 04:18:18;;;;;;;2.72;2.05;;;;;;;11.31;70.50;99940.19;5295151;27;33510;-90
2022/01/01 04:20:47;;;;;;;5.32;2.85;;;;;;;11.34;70.48;99941.91;5300773;27;33691;-90
2022/01/01 04:23:16;;;;;;;3.60;2.72;;;;;;;11.39;70.14;99955.69;5293863;27;33428;-90
2022/01/01 04:25:47;;;;;;;4.10;2.40;;;;;;;11.53;69.75;99964.16;5295380;27;31481;-89
2022/01/01 04:28:16;;;;;;;7.15;3.17;;;;;;;11.39;70.01;99960.88;5306909;27;34165;-89
2022/01/01 04:30:45;;;;;;;5.20;2.47;;;;;;;11.60;69.41;99970.13;5296041;27;34703;-90
2022/01/01 04:33:17;;;;;;;4.50;2.92;;;;;;;11.49;69.77;99962.47;5320237;27;34046;-89
2022/01/01 04:35:46;;;;;;;4.10;2.45;;;;;;;11.53;69.47;99961.56;5322296;27;33873;-89
2022/01/01 04:38:30;;;;;;;3.87;2.55;;;;;;;11.54;69.34;99964.13;5316265;27;34873;-88
2022/01/01 04:41:00;;;;;;;3.40;2.33;;;;;;;11.60;69.05;99955.41;5315497;27;34634;-89
2022/01/01 04:43:29;;;;;;;4.78;2.33;;;;;;;11.70;68.64;99962.19;5296286;27;33464;-89
2022/01/01 04:45:58;;;;;;;2.67;2.05;;;;;;;11.67;68.83;99962.25;5295461;27;31695;-89
2022/01/01 04:48:28;;;;;;;6.72;3.33;;;;;;;11.60;69.15;99954.53;5322448;27;34047;-88
2022/01/01 04:50:57;;;;;;;5.05;2.40;;;;;;;11.47;69.61;99954.69;5316025;27;33788;-88
2022/01/01 04:53:26;;;;;;;2.78;1.92;;;;;;;11.44;69.92;99957.34;5296581;27;33775;-89
2022/01/01 04:55:55;;;;;;;3.35;1.85;;;;;;;11.45;69.99;99963.37;5315953;27;33977;-90
2022/01/01 04:58:23;;;;;;;4.20;2.53;;;;;;;11.50;69.75;99957.28;5316601;27;34630;-89
2022/01/01 05:00:52;;;;;;;2.70;2.03;;;;;;;11.40;70.35;99950.44;5296897;27;33626;-90
2022/01/01 05:03:22;;;;;;;3.03;1.95;;;;;;;11.57;69.58;99959.78;5322784;27;34041;-90
2022/01/01 05:05:52;;;;;;;3.65;1.77;;;;;;;11.69;69.12;99957.00;5315553;27;33727;-88
2022/01/01 05:08:20;;;;;;;3.92;1.80;;;;;;;11.70;69.22;99945.75;5315773;26;35704;-89
2022/01/01 05:10:49;;;;;;;5.93;2.70;;;;;;;11.74;69.00;99945.69;5315761;27;34102;-89
2022/01/01 05:13:19;;;;;;;2.83;1.80;;;;;;;11.66;69.17;99959.66;5315489;27;34246;-89
2022/01/01 05:15:49;;;;;;;2.92;2.35;;;;;;;11.70;69.31;99948.34;5322366;27;33582;-89
2022/01/01 05:18:18;;;;;;;3.12;2.20;;;;;;;11.69;69.40;99942.31;5316340;27;32971;-88
2022/01/01 05:20:47;;;;;;;3.30;1.67;;;;;;;11.91;68.51;99940.28;5295758;27;34231;-90
2022/01/01 05:23:20;;;;;;;3.12;1.87;;;;;;;11.59;69.69;99955.41;5315637;27;34166;-89
2022/01/01 05:25:49;;;;;;;4.53;1.85;;;;;;;11.84;68.92;99945.53;5315581;27;33932;-89
2022/01/01 05:28:17;;;;;;;4.35;2.00;;;;;;;12.01;68.42;99945.31;5302554;27;34282;-89
2022/01/01 05:30:46;;;;;;;3.97;2.15;;;;;;;11.70;69.12;99945.75;5295545;27;33687;-87
2022/01/01 05:33:15;;;;;;;3.20;2.05;;;;;;;11.81;69.11;99937.78;5315994;27;33168;-90
2022/01/01 05:35:44;;;;;;;1.60;1.33;;;;;;;11.99;68.42;99940.16;5315981;27;33365;-89
2022/01/01 05:38:14;;;;;;;2.40;1.60;;;;;;;11.92;68.61;99948.94;5296132;27;33868;-89
2022/01/01 05:40:56;;;;;;;4.75;2.08;;;;;;;11.96;68.50;99945.44;5315971;27;33978;-89
2022/01/01 05:43:24;;;;;;;4.23;2.00;;;;;;;11.78;69.34;99936.09;5321479;27;36106;-91
2022/01/01 05:45:53;;;;;;;1.45;1.27;;;;;;;11.78;69.33;99948.25;5315277;27;34708;-89
2022/01/01 05:48:22;;;;;;;2.60;1.50;;;;;;;12.12;67.99;99943.44;5315783;27;33795;-90
2022/01/01 05:50:51;;;;;;;4.50;1.52;;;;;;;12.33;67.28;99931.84;5315602;27;33938;-90
2022/01/01 05:53:20;;;;;;;3.12;1.92;;;;;;;12.29;67.24;99941.41;5302455;27;32219;-89
2022/01/01 05:55:49;;;;;;;1.70;1.45;;;;;;;12.23;67.60;99951.94;5295817;27;34516;-89
2022/01/01 05:58:19;;;;;;;4.35;1.98;;;;;;;12.41;66.95;99955.97;5315501;27;34142;-89
2022/01/01 06:00:48;;;;;;;3.65;1.52;;;;;;;12.22;67.45;99972.75;5295729;27;34766;-89
2022/01/01 06:03:18;;;;;;;3.22;1.65;;;;;;;12.32;67.18;99976.94;5315556;27;34109;-88
2022/01/01 06:05:48;;;;;;;2.75;1.73;;;;;;;12.47;66.74;99975.84;5322358;27;33465;-91
2022/01/01 06:08:17;;;;;;;3.03;1.90;;;;;;;12.62;66.12;99977.34;5313841;27;33803;-89
2022/01/01 06:10:45;;;;;;;3.72;1.60;;;;;;;12.35;67.12;99984.72;5315677;27;33441;-89
2022/01/01 06:13:14;;;;;;;2.53;1.52;;;;;;;12.41;66.84;99997.59;5295280;27;33806;-89
2022/01/01 06:15:44;;;;;;;2.62;1.45;;;;;;;12.17;67.46;99991.03;5315101;27;34087;-90
2022/01/01 06:18:13;;;;;;;4.07;2.22;;;;;;;12.19;67.37;100004.88;5322225;27;34652;-88
2022/01/01 06:20:43;;;;;;;2.92;1.65;;;;;;;12.19;67.61;100007.47;5316719;27;33543;-90
2022/01/01 06:23:12;;;;;;;4.28;1.85;;;;;;;12.42;66.79;100009.75;5296828;27;32339;-87
2022/01/01 06:25:41;;;;;;;2.17;1.67;;;;;;;12.07;68.04;100007.66;5317098;27;34827;-90
2022/01/01 06:28:09;;;;;;;1.85;1.40;;;;;;;12.34;67.15;100020.25;5296962;27;33999;-89
2022/01/01 06:30:38;;;;;;;2.35;1.52;;;;;;;12.33;67.00;100017.69;5316556;27;34545;-88
2022/01/01 06:33:13;;;;;;;3.72;1.65;;;;;;;12.51;66.28;100012.19;5322890;27;34206;-89
2022/01/01 06:35:43;;;;;;;2.83;1.67;;;;;;;12.37;66.82;100022.81;5316646;27;34728;-90
2022/01/01 06:38:12;;;;;;;3.03;1.70;;;;;;;12.27;67.06;100026.41;5316220;27;34087;-89
2022/01/01 06:40:42;;;;;;;2.17;1.60;;;;;;;12.03;67.94;100039.78;5296695;27;33849;-89
2022/01/01 06:43:13;;;;;;;2.77;1.90;;;;;;;12.17;67.44;100041.31;5316618;27;32988;-88
2022/01/01 06:45:42;;;;;;;3.40;2.10;;;;;;;12.20;67.51;100030.00;5322483;27;33049;-90
2022/01/01 06:48:12;;;;;;;2.30;1.62;;;;;;;11.98;68.31;100045.03;5316570;27;34507;-88
2022/01/01 06:50:42;;;;;;;2.97;1.55;;;;;;;12.29;67.32;100040.28;5316365;27;34546;-88
2022/01/01 06:53:11;;;;;;;2.22;1.65;;;;;;;12.02;68.06;100053.69;5296351;27;33997;-88
2022/01/01 06:55:40;;;;;;;3.22;1.80;;;;;;;12.17;67.92;100048.25;5316572;27;34719;-89
2022/01/01 06:58:11;;;;;;;5.30;1.70;;;;;;;12.30;67.26;100047.22;5323192;27;34762;-89
2022/01/01 07:00:40;;;;;;;3.20;1.77;;;;;;;11.94;68.66;100054.63;5322676;27;33662;-90
2022/01/01 07:03:09;;;;;;;2.08;1.33;;;;;;;12.27;67.53;100060.25;5296338;27;34035;-89
2022/01/01 07:05:39;;;;;;;1.80;1.45;;;;;;;12.50;66.70;100064.28;5316524;27;34636;-89
2022/01/01 07:08:07;;;;;;;3.28;1.65;;;;;;;12.46;66.65;100070.41;5296472;27;35225;-89
2022/01/01 07:10:37;;;;;;;3.10;1.73;;;;;;;12.31;67.37;100069.72;5296633;27;34232;-89
2022/01/01 07:13:06;;;;;;;3.25;1.83;;;;;;;12.33;67.42;100075.78;5321790;27;33496;-89
2022/01/01 07:15:35;;;;;;;2.50;1.87;;;;;;;12.25;67.86;100074.16;5295534;27;34515;-89
2022/01/01 07:18:04;;;;;;;2.28;1.60;;;;;;;12.44;66.95;100078.22;5295645;27;34180;-88
2022/01/01 07:20:32;;;;;;;1.62;1.35;;;;;;;12.60;66.47;100078.84;5316402;27;33782;-90
2022/01/01 07:23:03;;;;;;;3.50;1.30;;;;;;;12.71;66.03;100074.34;5322630;27;33571;-88
2022/01/01 07:25:32;;;;;;;2.72;1.20;;;;;;;12.72;65.92;100083.00;5316831;27;34762;-89
2022/01/01 07:28:01;;;;;;;2.17;1.73;;;;;;;12.77;65.47;100100.28;5316045;27;34021;-91
2022/01/01 07:30:30;;;;;;;2.55;1.65;;;;;;;12.39;67.02;100113.84;5316001;27;33635;-90
2022/01/01 07:32:59;;;;;;;1.60;1.20;;;;;;;12.48;66.61;100107.66;5316192;27;34211;-89
2022/01/01 07:35:28;;;;;;;2.83;1.65;;;;;;;12.37;66.90;100113.88;5322995;27;33430;-89
2022/01/01 07:37:56;;;;;;;2.85;1.67;;;;;;;12.18;67.48;100112.41;5297656;27;35065;-88
2022/01/01 07:40:27;;;;;;;2.50;1.98;;;;;;;12.55;66.38;100124.91;5316540;27;33927;-90
2022/01/01 07:42:58;;;;;;;4.18;2.05;;;;;;;12.54;66.23;100125.78;5316353;27;33003;-90
2022/01/01 07:45:27;;;;;;;2.85;1.60;;;;;;;12.37;66.68;100119.09;5316234;27;33957;-89
2022/01/01 07:47:56;;;;;;;2.92;1.92;;;;;;;12.48;66.56;100128.47;5315809;27;33911;-90
2022/01/01 07:50:25;;;;;;;5.53;1.58;;;;;;;12.58;66.20;100130.91;5302575;27;33900;-88
2022/01/01 07:52:54;;;;;;;2.55;1.65;;;;;;;12.49;66.20;100135.41;5319381;27;33505;-88
2022/01/01 07:55:23;;;;;;;2.28;1.48;;;;;;;12.41;66.64;100135.50;5316691;27;33366;-90
2022/01/01 07:57:53;;;;;;;3.80;1.90;;;;;;;12.26;67.36;100136.56;5316443;27;33780;-90
2022/01/01 08:00:24;;;;;;;2.85;1.85;;;;;;;12.48;66.81;100141.50;5316596;27;32992;-89
2022/01/01 08:02:53;;;;;;;3.10;1.75;;;;;;;12.51;66.57;100144.03;5322513;27;33050;-91
2022/01/01 08:05:21;;;;;;;3.15;1.87;;;;;;;12.62;66.36;100149.97;5316487;27;34191;-89
2022/01/01 08:07:50;;;;;;;5.05;2.58;;;;;;;12.50;66.82;100137.12;5295968;27;34618;-89
2022/01/01 08:10:37;;;;;;;4.35;2.08;;;;;;;12.39;67.31;100147.66;5318765;27;33535;-88
2022/01/01 08:13:08;;;;;;;3.90;2.15;;;;;;;12.26;67.79;100152.19;5315772;27;33276;-88
2022/01/01 08:15:38;;;;;;;3.72;1.67;;;;;;;12.82;65.90;100160.09;5295990;27;33946;-89
2022/01/01 08:18:07;;;;;;;2.60;1.70;;;;;;;12.55;66.87;100162.19;5321655;27;33575;-91
2022/01/01 08:20:39;;;;;;;3.15;1.33;;;;;;;12.66;66.64;100169.88;5316223;27;34711;-87
2022/01/01 08:23:08;;;;;;;1.73;1.33;;;;;;;12.58;66.47;100175.16;5315746;27;33854;-89
2022/01/01 08:25:37;;;;;;;4.57;2.60;;;;;;;12.71;66.40;100175.87;5316175;27;34601;-90
2022/01/01 08:28:09;;;;;;;1.98;1.42;;;;;;;12.83;65.70;100177.44;5317273;27;34397;-89
2022/01/01 08:30:38;;;;;;;2.55;1.50;;;;;;;12.79;65.74;100184.44;5302153;27;34139;-89
2022/01/01 08:33:07;;;;;;;2.55;1.60;;;;;;;12.97;64.96;100195.44;5315908;27;33097;-89
2022/01/01 08:35:38;;;;;;;4.18;1.90;;;;;;;12.93;65.54;100191.19;5315838;27;34550;-90
2022/01/01 08:38:08;;;;;;;2.70;1.60;;;;;;;13.04;65.21;100186.66;5313512;27;34876;-89
2022/01/01 08:40:37;;;;;;;3.03;1.98;;;;;;;13.09;65.14;100182.25;5316050;27;33695;-89
2022/01/01 08:43:05;;;;;;;3.92;2.20;;;;;;;12.98;65.56;100187.62;5316386;27;33388;-88
2022/01/01 08:45:37;;;;;;;2.83;1.50;;;;;;;12.73;66.57;100179.31;5301221;27;34732;-88
2022/01/01 08:48:06;;;;;;;4.20;2.15;;;;;;;12.93;65.93;100186.00;5315786;27;34060;-88
2022/01/01 08:50:36;;;;;;;2.97;1.62;;;;;;;12.84;66.26;100188.72;5315604;27;33597;-88
2022/01/01 08:53:04;;;;;;;2.30;1.30;;;;;;;13.07;65.81;100183.16;5296083;27;33609;-88
2022/01/01 08:55:33;;;;;;;3.03;1.67;;;;;;;13.26;65.19;100196.75;5302414;27;34813;-90
2022/01/01 08:58:02;;;;;;;8.18;2.03;;;;;;;13.26;64.93;100201.97;5295992;27;34604;-90
2022/01/01 09:00:52;;;;;;;2.58;1.70;;;;;;;13.17;65.99;100201.22;5315587;27;33848;-90
2022/01/01 09:03:22;;;;;;;2.28;1.70;;;;;;;13.68;64.08;100205.63;5296427;27;31929;-89
2022/01/01 09:05:51;;;;;;;3.15;1.58;;;;;;;13.53;64.88;100201.56;5295824;27;33853;-90
2022/01/01 09:08:38;;;;;;;2.17;1.50;;;;;;;13.83;63.69;100210.56;5316346;27;34244;-89
2022/01/01 09:11:07;;;;;;;2.42;1.58;;;;;;;13.92;63.36;100212.16;5319525;27;32862;-89
2022/01/01 09:13:41;;;;;;;1.70;1.45;;;;;;;13.74;63.34;100215.94;5322088;27;33882;-89
2022/01/01 09:16:11;;;;;;;1.60;1.15;;;;;;;13.44;64.51;100214.75;5315356;27;33870;-88
2022/01/01 09:18:41;;;;;;;3.15;1.73;;;;;;;13.78;63.98;100224.59;5315863;27;34020;-89
2022/01/01 09:21:10;;;;;;;2.87;1.48;;;;;;;13.67;63.96;100219.53;5295999;27;32642;-89
2022/01/01 09:23:39;;;;;;;3.67;1.48;;;;;;;13.89;63.50;100214.81;5295428;27;33913;-88
2022/01/01 09:26:08;;;;;;;3.47;1.87;;;;;;;14.00;62.97;100225.06;5322428;27;33857;-88
2022/01/01 09:28:37;;;;;;;3.95;1.85;;;;;;;13.53;64.71;100221.53;5315995;27;34082;-88
2022/01/01 09:31:06;;;;;;;3.80;2.00;;;;;;;13.77;63.82;100215.03;5315438;27;33872;-89
2022/01/01 09:33:38;;;;;;;2.40;1.50;;;;;;;14.12;62.83;100210.91;5314386;27;33485;-88
2022/01/01 09:36:09;;;;;;;1.92;1.42;;;;;;;14.00;63.23;100219.84;5316089;27;34003;-88
2022/01/01 09:38:38;;;;;;;4.00;1.55;;;;;;;13.90;63.21;100221.75;5320145;27;34471;-88
2022/01/01 09:41:06;;;;;;;3.08;2.10;;;;;;;13.90;63.53;100218.28;5316921;27;33488;-88
2022/01/01 09:43:35;;;;;;;3.17;1.48;;;;;;;13.76;64.14;100218.53;5315761;27;33342;-88
2022/01/01 09:46:05;;;;;;;2.83;1.52;;;;;;;14.18;62.50;100216.87;5315985;27;32634;-90
2022/01/01 09:48:34;;;;;;;4.35;1.60;;;;;;;14.06;63.69;100217.97;5315513;27;33738;-90
2022/01/01 09:51:04;;;;;;;3.35;1.48;;;;;;;14.18;62.94;100219.50;5295853;27;32760;-90
2022/01/01 09:53:33;;;;;;;2.83;1.58;;;;;;;14.07;63.68;100214.47;5301362;27;33539;-89
2022/01/01 09:56:04;;;;;;;3.70;2.10;;;;;;;14.40;62.56;100208.59;5295636;27;34383;-89
2022/01/01 09:58:34;;;;;;;2.78;1.85;;;;;;;14.51;62.08;100211.84;5294930;27;34781;-88
2022/01/01 10:01:04;;;;;;;2.15;1.42;;;;;;;14.57;61.47;100210.88;5315318;27;33894;-88
2022/01/01 10:03:35;;;;;;;3.10;1.50;;;;;;;14.39;61.70;100210.34;5315659;27;33620;-89
2022/01/01 10:06:08;;;;;;;2.87;1.65;;;;;;;14.27;62.31;100221.91;5301533;27;35218;-88
2022/01/01 10:08:38;;;;;;;2.83;1.65;;;;;;;14.44;62.19;100221.56;5296223;27;34659;-88
2022/01/01 10:11:08;;;;;;;1.83;1.08;;;;;;;14.39;61.93;100230.37;5315339;27;34029;-89
2022/01/01 10:13:38;;;;;;;1.48;1.20;;;;;;;14.27;62.26;100231.50;5315325;27;34027;-89
2022/01/01 10:16:09;;;;;;;1.92;1.17;;;;;;;14.23;62.33;100225.47;5293814;27;33359;-90
2022/01/01 10:18:39;;;;;;;2.12;1.40;;;;;;;14.28;62.43;100226.25;5301811;27;35433;-88
2022/01/01 10:21:12;;;;;;;3.00;1.52;;;;;;;14.19;62.47;100217.75;5315669;27;34241;-89
2022/01/01 10:23:44;;;;;;;2.60;1.33;;;;;;;14.28;62.35;100228.00;5315066;27;33658;-88
2022/01/01 10:29:09;;;;;;;3.33;1.50;;;;;;;14.15;62.82;100216.06;5314792;27;34080;-87
2022/01/01 10:31:39;;;;;;;2.45;1.50;;;;;;;14.06;63.17;100220.59;5316067;27;33626;-88
2022/01/01 10:34:14;;;;;;;1.87;1.17;;;;;;;13.88;63.37;100218.31;5320959;27;34232;-89
2022/01/01 10:36:48;;;;;;;2.62;1.55;;;;;;;13.86;63.53;100222.69;5314840;27;33907;-87
2022/01/01 10:39:21;;;;;;;1.85;1.40;;;;;;;13.99;63.15;100226.81;5295074;27;34608;-89
2022/01/01 10:41:51;;;;;;;;;;;;;;;13.98;63.19;100224.22;5295662;27;35085;-88
2022/01/01 10:44:27;;;;;;;0.80;0.80;;;;;;;14.27;62.17;100226.25;5294992;27;32024;-88
2022/01/01 10:46:56;;;;;;;1.42;1.17;;;;;;;14.06;62.49;100233.63;5314954;27;33885;-89
2022/01/01 10:49:37;;;;;;;3.20;1.65;;;;;;;13.90;63.17;100220.91;5321717;27;34018;-89
2022/01/01 10:52:16;;;;;;;2.05;1.15;;;;;;;14.23;62.30;100238.53;5315519;27;34123;-89
2022/01/01 10:54:52;;;;;;;1.25;1.10;;;;;;;14.47;61.33;100234.56;5314719;27;33573;-87
2022/01/01 10:57:23;;;;;;;3.42;2.12;;;;;;;14.41;61.50;100247.72;5315233;27;33681;-89
2022/01/01 10:59:54;;;;;;;2.30;1.12;;;;;;;14.27;62.33;100240.16;5315152;27;34582;-88
2022/01/01 11:02:23;;;;;;;;;;;;;;;14.39;62.03;100238.22;5314725;27;33590;-86
2022/01/01 11:04:52;;;;;;;2.50;1.05;;;;;;;14.61;61.53;100238.66;5321655;27;33777;-88
2022/01/01 11:07:28;;;;;;;2.60;1.40;;;;;;;14.42;61.69;100230.31;5296447;27;31768;-89
2022/01/01 11:09:58;;;;;;;1.52;1.00;;;;;;;14.37;61.82;100229.56;5315406;27;33961;-90
2022/01/01 11:12:28;;;;;;;2.28;1.30;;;;;;;14.30;62.08;100239.25;5315501;27;34600;-89
2022/01/01 11:15:01;;;;;;;1.45;1.08;;;;;;;14.23;62.14;100240.25;5294796;27;34172;-88
2022/01/01 11:17:31;;;;;;;1.27;1.02;;;;;;;14.34;61.88;100243.53;5315899;27;33766;-87
2022/01/01 11:20:02;;;;;;;2.15;1.17;;;;;;;14.22;62.31;100241.16;5320270;27;33853;-89
2022/01/01 11:22:33;;;;;;;1.55;1.20;;;;;;;14.59;61.08;100240.44;5314365;27;33988;-89
2022/01/01 11:25:03;;;;;;;1.58;1.20;;;;;;;14.25;62.31;100235.88;5315461;27;33387;-90
2022/01/01 11:27:32;;;;;;;1.80;1.10;;;;;;;14.60;61.25;100248.25;5315507;27;33957;-89
2022/01/01 11:30:04;;;;;;;2.42;1.40;;;;;;;14.85;60.32;100248.59;5317876;27;34691;-89
2022/01/01 11:32:40;;;;;;;1.80;1.37;;;;;;;14.67;60.87;100246.38;5322925;27;33526;-88
2022/01/01 11:35:11;;;;;;;2.25;1.30;;;;;;;14.75;60.26;100231.41;5301552;27;33542;-88
2022/01/01 11:37:57;;;;;;;1.85;1.10;;;;;;;14.53;61.69;100223.13;5316459;27;34585;-87
2022/01/01 11:40:27;;;;;;;3.40;1.77;;;;;;;14.90;60.37;100225.81;5315906;27;33895;-89
2022/01/01 11:42:55;;;;;;;3.97;1.65;;;;;;;14.73;61.31;100230.56;5316194;27;33332;-87
2022/01/01 11:45:43;;;;;;;4.20;1.50;;;;;;;15.05;60.17;100235.09;5295752;27;34876;-88
2022/01/01 11:48:33;;;;;;;2.47;1.50;;;;;;;14.92;60.58;100239.72;5317055;27;33527;-87